Pagina principale
METAR-TAF:

METAR-TAF

Aeroporti :

Aeroporto di Cervia-Pisignano

Cervia, Italia

latitudine: 44-13N, longitudine: 012-18E, altezza: 6 m

Osservazione

Il bollettino è stato emesso 25 minuti fa, alle 12:55 UTC
Vento 15 kt da sud-ovest
Temperature 23°C
Umidità 44%
Pressione 999 hPa
Visibilità 10 km o più
nessuna nube inferiore a 1500 m e nessun cumulonembo

METAR: LIPC 271255Z 23015KT CAVOK 23/10 Q0999

Ora: 15:20 (13:20 UTC)

Previsione

Il bollettino è stato emesso 2 ore e 20 minuti fa, alle 11:00 UTC
Previsione valida dal 27 alle 12 UTC al 27 alle 21 UTC
Vento 8 kt da sud-ovest
Visibilità 10 km o più
nessuna nube inferiore a 1500 m e nessun cumulonembo
Probabilità 40% :
Temporaneamente
dal 27 alle 12 UTC al 27 alle 15 UTC
Visibilità: 5000 m
Nubi sparse ad un'altezza di 3500 ft
Nubi sparse ad un'altezza di 6000 ft
pioggia

TAF: LIPC 271100Z 2712/2721 22008KT CAVOK PROB40 TEMPO 2712/2715 5000 RA SCT035 SCT060

Osservazioni e previsioni meteorologiche di più di 4000 aeroporti (messaggi METAR e TAF).

Le stazioni disponibili sono rappresentate dai dischi gialli e rossi sulla carta.

Puntare il mouse per vedere il nome della stazione.

Clicca sopra per visualizzare le osservazioni e previsioni meteorologiche.

Per cambiare la mappa : fare clic sui pulsanti verdi con una croce nera per ingrandire, il pulsante verde con un trattino per diminuire, o sulla freccia verde per le mappe adiacenti.


METAR-TAF: